Time;durP1;ratioP1;P1;durP2;ratioP2;P2;SDS_P1;SDS_P2;PMS_P1;PMS_P2;Temp;Humidity;BMP_temperature;BMP_pressure;BME280_temperature;BME280_humidity;BME280_pressure;Samples;Min_cycle;Max_cycle;Signal;HPM_P1;HPM_P2
2021/12/21 00:00:36;;;;;;;13.30;9.88;;;;;;;;;;5054668;28;20037;-76
2021/12/21 00:03:02;;;;;;;14.68;10.40;;;;;;;;;;5059905;28;20036;-75
2021/12/21 00:05:29;;;;;;;15.48;10.73;;;;;;;;;;5067178;28;20052;-76
2021/12/21 00:07:57;;;;;;;13.00;9.98;;;;;;;;;;5053226;28;20048;-76
2021/12/21 00:10:25;;;;;;;16.50;10.00;;;;;;;;;;5052874;28;20404;-76
2021/12/21 00:15:34;;;;;;;14.70;10.38;;;;;;;;;;5034494;28;20081;-76
2021/12/21 00:18:07;;;;;;;12.85;9.77;;;;;;;;;;5034211;28;20053;-75
2021/12/21 00:25:37;;;;;;;18.65;10.77;;;;;;;;;;5034306;28;20445;-75
2021/12/21 00:28:04;;;;;;;14.80;9.85;;;;;;;;;;5048643;28;20056;-75
2021/12/21 00:30:30;;;;;;;13.68;9.95;;;;;;;;;;5053980;28;20117;-77
2021/12/21 00:32:56;;;;;;;14.52;9.23;;;;;;;;;;5055139;28;20053;-75
2021/12/21 00:35:22;;;;;;;13.20;9.82;;;;;;;;;;5053821;28;20049;-75
2021/12/21 00:37:48;;;;;;;13.65;9.73;;;;;;;;;;5043724;28;20125;-75
2021/12/21 00:40:14;;;;;;;14.25;10.27;;;;;;;;;;5034378;28;20045;-75
2021/12/21 00:42:41;;;;;;;15.07;10.10;;;;;;;;;;5046831;28;20041;-76
2021/12/21 00:45:07;;;;;;;16.27;10.50;;;;;;;;;;5053625;28;20041;-77
2021/12/21 00:47:35;;;;;;;17.48;10.30;;;;;;;;;;5053385;28;20036;-76
2021/12/21 00:50:03;;;;;;;15.25;9.93;;;;;;;;;;5053286;28;20049;-75
2021/12/21 00:52:29;;;;;;;17.15;10.48;;;;;;;;;;5053411;28;20052;-74
2021/12/21 00:54:56;;;;;;;14.52;9.88;;;;;;;;;;5053624;28;20048;-75
2021/12/21 00:57:22;;;;;;;19.83;10.07;;;;;;;;;;5046258;28;20041;-75
2021/12/21 00:59:48;;;;;;;14.73;10.32;;;;;;;;;;5034215;28;20052;-76
2021/12/21 01:02:14;;;;;;;14.90;10.00;;;;;;;;;;5035821;28;20032;-75
2021/12/21 01:04:45;;;;;;;13.70;9.80;;;;;;;;;;5050850;28;20056;-74
2021/12/21 01:12:12;;;;;;;12.38;9.50;;;;;;;;;;5045901;28;20049;-74
2021/12/21 01:17:15;;;;;;;15.00;9.48;;;;;;;;;;5053600;28;20060;-75
2021/12/21 01:19:46;;;;;;;13.18;9.95;;;;;;;;;;5053056;28;20045;-75
2021/12/21 01:22:39;;;;;;;14.02;10.02;;;;;;;;;;5053560;28;20045;-75
2021/12/21 01:33:07;;;;;;;14.10;9.25;;;;;;;;;;5044908;28;20044;-73
2021/12/21 01:35:41;;;;;;;11.98;9.10;;;;;;;;;;5062954;28;20134;-75
2021/12/21 01:40:52;;;;;;;11.70;8.50;;;;;;;;;;5054093;28;20064;-75
2021/12/21 01:43:32;;;;;;;14.38;8.50;;;;;;;;;;5053107;28;20051;-74
2021/12/21 01:51:27;;;;;;;13.52;9.07;;;;;;;;;;5033272;28;20128;-76
2021/12/21 01:53:53;;;;;;;15.02;8.93;;;;;;;;;;5034269;28;20064;-75
2021/12/21 01:56:20;;;;;;;12.52;8.82;;;;;;;;;;5050407;28;20048;-74
2021/12/21 01:58:46;;;;;;;13.48;8.75;;;;;;;;;;5053347;28;20045;-74
2021/12/21 02:01:13;;;;;;;14.90;8.90;;;;;;;;;;5038009;28;20049;-75
2021/12/21 02:03:41;;;;;;;11.35;7.32;;;;;;;;;;5052286;28;20060;-76
2021/12/21 02:06:08;;;;;;;11.63;7.95;;;;;;;;;;5056921;28;20056;-75
2021/12/21 02:08:34;;;;;;;11.88;7.70;;;;;;;;;;5056380;28;20100;-76
2021/12/21 02:11:00;;;;;;;11.63;7.22;;;;;;;;;;5040802;28;20503;-76
2021/12/21 02:13:32;;;;;;;12.13;7.80;;;;;;;;;;5052876;28;20422;-74
2021/12/21 02:15:58;;;;;;;11.63;7.10;;;;;;;;;;5069594;28;20198;-73
2021/12/21 02:21:02;;;;;;;11.15;7.82;;;;;;;;;;5055447;28;20045;-75
2021/12/21 02:23:34;;;;;;;8.95;6.40;;;;;;;;;;5036137;28;20072;-74
2021/12/21 02:30:56;;;;;;;8.93;6.55;;;;;;;;;;5055529;28;20452;-75
2021/12/21 02:33:23;;;;;;;9.88;6.95;;;;;;;;;;5045264;28;20046;-75
2021/12/21 02:35:49;;;;;;;11.43;6.60;;;;;;;;;;5065599;28;20041;-75
2021/12/21 02:38:15;;;;;;;12.07;6.57;;;;;;;;;;5056068;28;20045;-75
2021/12/21 02:40:42;;;;;;;11.18;6.05;;;;;;;;;;5055884;28;20449;-74
2021/12/21 02:43:10;;;;;;;9.05;6.28;;;;;;;;;;5054420;28;20049;-75
2021/12/21 02:45:36;;;;;;;9.68;6.10;;;;;;;;;;5039134;28;20055;-75
2021/12/21 02:48:03;;;;;;;9.50;6.22;;;;;;;;;;5054984;28;20041;-75
2021/12/21 02:50:29;;;;;;;8.40;6.22;;;;;;;;;;5056217;28;20423;-74
2021/12/21 02:52:55;;;;;;;10.75;6.72;;;;;;;;;;5065718;28;20140;-75
2021/12/21 02:55:21;;;;;;;9.63;5.97;;;;;;;;;;5056139;28;20045;-74
2021/12/21 02:57:47;;;;;;;10.07;5.72;;;;;;;;;;5056405;28;20048;-74
2021/12/21 03:00:13;;;;;;;12.00;6.10;;;;;;;;;;5056806;28;20044;-75
2021/12/21 03:02:40;;;;;;;9.27;5.78;;;;;;;;;;5050786;28;20041;-74
2021/12/21 03:05:07;;;;;;;9.77;6.10;;;;;;;;;;5055857;28;20365;-73
2021/12/21 03:10:14;;;;;;;10.75;6.50;;;;;;;;;;5054378;28;20053;-74
2021/12/21 03:15:33;;;;;;;11.13;6.07;;;;;;;;;;5024685;28;20057;-74
2021/12/21 03:17:59;;;;;;;9.93;5.68;;;;;;;;;;5040178;28;20080;-73
2021/12/21 03:20:25;;;;;;;9.88;5.95;;;;;;;;;;5035062;28;20049;-75
2021/12/21 03:22:52;;;;;;;9.30;5.18;;;;;;;;;;5070367;28;20049;-75
2021/12/21 03:25:18;;;;;;;10.90;5.88;;;;;;;;;;5075303;28;20055;-74
2021/12/21 03:27:44;;;;;;;12.57;6.10;;;;;;;;;;5075375;28;20056;-76
2021/12/21 03:30:12;;;;;;;9.45;6.10;;;;;;;;;;5075040;28;20040;-76
2021/12/21 03:32:38;;;;;;;9.90;5.70;;;;;;;;;;5055931;28;20391;-75
2021/12/21 03:35:04;;;;;;;9.38;5.78;;;;;;;;;;5051900;28;20349;-74
2021/12/21 03:37:31;;;;;;;8.15;5.28;;;;;;;;;;5051833;28;20037;-74
2021/12/21 03:39:58;;;;;;;10.07;6.13;;;;;;;;;;5036103;28;20033;-77
2021/12/21 03:42:24;;;;;;;10.82;6.10;;;;;;;;;;5051558;28;20049;-76
2021/12/21 03:44:51;;;;;;;9.73;6.43;;;;;;;;;;5051503;28;20107;-75
2021/12/21 03:47:17;;;;;;;11.57;6.22;;;;;;;;;;5046351;28;20060;-75
2021/12/21 03:52:15;;;;;;;8.63;5.95;;;;;;;;;;5068475;28;20055;-74
2021/12/21 03:54:42;;;;;;;11.30;5.97;;;;;;;;;;5074484;28;20041;-74
2021/12/21 03:57:09;;;;;;;8.93;6.40;;;;;;;;;;5074492;28;20048;-76
2021/12/21 03:59:35;;;;;;;8.63;5.22;;;;;;;;;;5051574;28;20085;-73
2021/12/21 04:02:01;;;;;;;9.50;5.65;;;;;;;;;;5040516;28;20124;-76
2021/12/21 04:04:27;;;;;;;8.10;5.90;;;;;;;;;;5052656;28;20400;-75
2021/12/21 04:06:54;;;;;;;11.30;6.25;;;;;;;;;;5054024;28;20078;-76
2021/12/21 04:09:20;;;;;;;10.02;6.20;;;;;;;;;;5070795;28;20112;-75
2021/12/21 04:11:46;;;;;;;10.02;6.07;;;;;;;;;;5054887;28;20053;-76
2021/12/21 04:14:13;;;;;;;9.27;5.95;;;;;;;;;;5054069;28;20044;-75
2021/12/21 04:16:39;;;;;;;9.57;6.50;;;;;;;;;;5045892;28;20389;-73
2021/12/21 04:19:06;;;;;;;10.13;6.03;;;;;;;;;;5034864;28;20132;-75
2021/12/21 04:21:32;;;;;;;10.13;6.32;;;;;;;;;;5051155;28;20040;-74
2021/12/21 04:23:58;;;;;;;9.60;5.28;;;;;;;;;;5063004;28;20049;-76
2021/12/21 04:26:24;;;;;;;10.02;6.25;;;;;;;;;;5050216;28;20045;-75
2021/12/21 04:28:50;;;;;;;9.40;6.03;;;;;;;;;;5041770;28;20053;-75
2021/12/21 04:31:16;;;;;;;11.27;5.97;;;;;;;;;;5045715;28;20171;-73
2021/12/21 04:33:43;;;;;;;11.55;5.88;;;;;;;;;;5046976;28;20041;-75
2021/12/21 04:36:10;;;;;;;8.50;6.13;;;;;;;;;;5054111;28;20049;-75
2021/12/21 04:38:39;;;;;;;10.23;6.13;;;;;;;;;;5053662;28;20475;-73
2021/12/21 04:41:12;;;;;;;9.98;6.22;;;;;;;;;;5054925;28;20092;-74
2021/12/21 04:43:38;;;;;;;9.57;5.90;;;;;;;;;;5055172;28;20051;-75
2021/12/21 04:46:04;;;;;;;9.43;6.20;;;;;;;;;;5049219;28;20041;-76
2021/12/21 04:48:30;;;;;;;9.55;5.82;;;;;;;;;;5053594;28;20037;-75
2021/12/21 04:50:56;;;;;;;10.20;5.88;;;;;;;;;;5052524;28;20052;-75
2021/12/21 04:53:23;;;;;;;11.57;6.13;;;;;;;;;;5053909;28;20033;-77
2021/12/21 04:55:50;;;;;;;12.75;6.40;;;;;;;;;;5053789;28;20048;-74
2021/12/21 04:58:16;;;;;;;10.40;5.88;;;;;;;;;;5061133;28;20045;-73
2021/12/21 05:00:42;;;;;;;8.00;5.90;;;;;;;;;;5051387;28;20044;-74
2021/12/21 05:03:08;;;;;;;12.43;6.40;;;;;;;;;;5053305;28;20045;-75
2021/12/21 05:05:34;;;;;;;9.77;6.40;;;;;;;;;;5053543;28;20187;-74
2021/12/21 05:08:12;;;;;;;11.05;6.10;;;;;;;;;;5051684;28;20444;-74
2021/12/21 05:10:51;;;;;;;11.65;7.30;;;;;;;;;;5061105;28;20050;-74
2021/12/21 05:13:17;;;;;;;12.40;7.85;;;;;;;;;;5054486;28;20056;-76
2021/12/21 05:15:44;;;;;;;13.80;8.38;;;;;;;;;;5045528;28;20056;-73
2021/12/21 05:18:10;;;;;;;13.20;8.40;;;;;;;;;;5032755;28;20148;-75
2021/12/21 05:20:36;;;;;;;16.30;8.25;;;;;;;;;;5038473;28;20055;-76
2021/12/21 05:23:03;;;;;;;14.45;7.63;;;;;;;;;;5072698;28;20474;-75
2021/12/21 05:25:29;;;;;;;14.98;8.23;;;;;;;;;;5073916;28;20059;-73
2021/12/21 05:27:55;;;;;;;13.07;7.95;;;;;;;;;;5074505;28;20056;-75
2021/12/21 05:30:22;;;;;;;12.70;8.75;;;;;;;;;;5050490;28;20041;-75
2021/12/21 05:32:49;;;;;;;19.83;10.27;;;;;;;;;;5033158;28;20045;-74
2021/12/21 05:35:15;;;;;;;16.88;10.40;;;;;;;;;;5016860;28;20076;-74
2021/12/21 05:37:42;;;;;;;18.30;11.20;;;;;;;;;;5032818;28;20345;-73
2021/12/21 05:40:16;;;;;;;16.85;10.32;;;;;;;;;;5036160;28;20445;-73
2021/12/21 05:42:47;;;;;;;15.82;9.88;;;;;;;;;;5037374;28;20049;-74
2021/12/21 05:45:14;;;;;;;14.32;8.38;;;;;;;;;;5025583;28;20122;-75
2021/12/21 05:47:40;;;;;;;14.35;8.20;;;;;;;;;;5056869;28;20103;-73
2021/12/21 05:50:09;;;;;;;13.20;7.68;;;;;;;;;;5056742;28;20037;-76
2021/12/21 05:52:36;;;;;;;15.32;7.72;;;;;;;;;;5074474;28;20048;-75
2021/12/21 05:55:02;;;;;;;13.30;7.50;;;;;;;;;;5077344;28;20044;-74
2021/12/21 05:57:28;;;;;;;11.70;7.07;;;;;;;;;;5077450;28;20041;-75
2021/12/21 05:59:54;;;;;;;13.43;7.47;;;;;;;;;;5073795;28;20059;-76
2021/12/21 06:02:21;;;;;;;11.10;7.10;;;;;;;;;;5056232;28;20041;-76
2021/12/21 06:04:47;;;;;;;10.60;6.90;;;;;;;;;;5040424;28;20041;-75
2021/12/21 06:07:13;;;;;;;10.80;6.80;;;;;;;;;;5063415;28;20048;-76
2021/12/21 06:09:41;;;;;;;15.60;7.13;;;;;;;;;;5076350;28;20402;-76
2021/12/21 06:12:15;;;;;;;13.88;7.55;;;;;;;;;;5063226;28;20055;-74
2021/12/21 06:25:43;;;;;;;9.27;6.45;;;;;;;;;;5036735;28;20049;-74
2021/12/21 06:28:10;;;;;;;10.30;7.03;;;;;;;;;;5023372;28;20041;-77
2021/12/21 06:30:38;;;;;;;12.88;7.18;;;;;;;;;;5069480;28;20045;-74
2021/12/21 06:33:04;;;;;;;13.98;7.32;;;;;;;;;;5056921;28;20106;-77
2021/12/21 06:35:31;;;;;;;12.50;6.80;;;;;;;;;;5073051;28;20045;-74
2021/12/21 06:37:57;;;;;;;11.35;7.18;;;;;;;;;;5056635;28;20037;-74
2021/12/21 06:40:24;;;;;;;13.38;6.95;;;;;;;;;;5056403;28;20460;-76
2021/12/21 06:42:51;;;;;;;12.05;7.82;;;;;;;;;;5054416;28;20357;-75
2021/12/21 06:45:27;;;;;;;9.60;6.75;;;;;;;;;;5045361;28;20147;-75
2021/12/21 06:53:22;;;;;;;10.50;6.72;;;;;;;;;;5056425;28;20053;-76
2021/12/21 06:55:48;;;;;;;10.93;6.85;;;;;;;;;;5057094;28;20064;-73
2021/12/21 06:58:15;;;;;;;13.52;7.50;;;;;;;;;;5045503;28;20057;-74
2021/12/21 07:00:41;;;;;;;12.35;7.78;;;;;;;;;;5036967;28;20175;-77
2021/12/21 07:03:08;;;;;;;12.85;9.88;;;;;;;;;;5035706;28;20050;-74
2021/12/21 07:05:34;;;;;;;14.73;10.40;;;;;;;;;;5035805;28;20045;-77
2021/12/21 07:08:00;;;;;;;11.52;8.88;;;;;;;;;;5035578;28;20068;-72
2021/12/21 07:10:29;;;;;;;12.23;8.40;;;;;;;;;;5035488;28;20041;-76
2021/12/21 07:18:29;;;;;;;14.18;8.20;;;;;;;;;;5054812;28;20057;-76
2021/12/21 07:20:56;;;;;;;12.95;9.00;;;;;;;;;;5055983;28;20049;-75
2021/12/21 07:23:22;;;;;;;14.45;8.63;;;;;;;;;;5055572;28;20041;-75
2021/12/21 07:25:50;;;;;;;10.00;7.35;;;;;;;;;;5055360;28;20058;-73
2021/12/21 07:28:16;;;;;;;12.80;8.32;;;;;;;;;;5040422;28;20049;-74
2021/12/21 07:30:42;;;;;;;13.48;8.13;;;;;;;;;;5063364;28;20094;-74
2021/12/21 07:33:09;;;;;;;12.57;7.95;;;;;;;;;;5055169;28;20094;-75
2021/12/21 07:35:35;;;;;;;13.60;7.82;;;;;;;;;;5071950;28;20040;-73
2021/12/21 07:38:02;;;;;;;12.38;8.65;;;;;;;;;;5054850;28;20453;-74
2021/12/21 07:40:28;;;;;;;13.80;8.20;;;;;;;;;;5054644;28;20049;-74
2021/12/21 07:42:54;;;;;;;16.85;8.50;;;;;;;;;;5041639;28;20064;-73
2021/12/21 07:45:20;;;;;;;11.55;8.18;;;;;;;;;;5035350;28;20118;-75
2021/12/21 07:47:46;;;;;;;13.60;9.38;;;;;;;;;;5050803;28;20051;-74
2021/12/21 07:50:12;;;;;;;14.40;9.20;;;;;;;;;;5054998;28;20105;-74
2021/12/21 07:52:39;;;;;;;10.95;8.60;;;;;;;;;;5037717;28;20448;-75
2021/12/21 07:55:05;;;;;;;16.75;9.63;;;;;;;;;;5054747;28;20453;-73
2021/12/21 07:57:34;;;;;;;12.65;9.13;;;;;;;;;;5043136;28;20125;-75
2021/12/21 08:00:03;;;;;;;15.30;10.43;;;;;;;;;;5051560;28;20041;-73
2021/12/21 08:02:29;;;;;;;13.90;9.88;;;;;;;;;;5034313;28;20291;-75
2021/12/21 08:04:56;;;;;;;15.05;10.27;;;;;;;;;;5054329;28;20043;-73
2021/12/21 08:07:28;;;;;;;14.55;10.80;;;;;;;;;;5062741;28;20395;-74
2021/12/21 08:09:55;;;;;;;16.05;11.35;;;;;;;;;;5056292;28;20049;-77
2021/12/21 08:12:21;;;;;;;18.55;12.05;;;;;;;;;;5044053;28;20041;-75
2021/12/21 08:14:48;;;;;;;18.45;12.40;;;;;;;;;;5070881;28;20056;-75
2021/12/21 08:17:15;;;;;;;20.98;11.68;;;;;;;;;;5036643;28;20052;-75
2021/12/21 08:19:41;;;;;;;20.23;12.13;;;;;;;;;;5054046;28;20052;-75
2021/12/21 08:22:07;;;;;;;19.33;12.35;;;;;;;;;;5053981;28;20051;-74
2021/12/21 08:24:34;;;;;;;19.33;12.68;;;;;;;;;;5054259;28;20041;-74
2021/12/21 08:27:03;;;;;;;21.30;12.93;;;;;;;;;;5044083;28;20063;-72
2021/12/21 08:29:29;;;;;;;21.73;12.82;;;;;;;;;;5073479;28;20040;-76
2021/12/21 08:31:55;;;;;;;19.60;13.02;;;;;;;;;;5053805;28;20045;-74
2021/12/21 08:34:22;;;;;;;19.77;13.25;;;;;;;;;;5051763;28;20033;-74
2021/12/21 08:36:48;;;;;;;18.88;12.90;;;;;;;;;;5060335;28;20409;-73
2021/12/21 08:39:16;;;;;;;19.98;13.00;;;;;;;;;;5054460;28;20044;-76
2021/12/21 08:41:43;;;;;;;21.65;13.65;;;;;;;;;;5017177;28;20460;-74
2021/12/21 08:44:10;;;;;;;22.08;13.73;;;;;;;;;;5045491;28;20041;-75
2021/12/21 08:46:37;;;;;;;19.40;13.02;;;;;;;;;;5017128;28;20045;-74
2021/12/21 08:49:03;;;;;;;18.02;13.10;;;;;;;;;;5017228;28;20045;-75
2021/12/21 08:51:29;;;;;;;20.38;12.68;;;;;;;;;;5034331;28;20037;-72
2021/12/21 08:53:56;;;;;;;22.17;13.77;;;;;;;;;;5065329;28;20034;-74
2021/12/21 08:56:22;;;;;;;18.05;12.52;;;;;;;;;;5068639;28;20107;-76
2021/12/21 08:58:48;;;;;;;22.88;13.30;;;;;;;;;;5048048;28;20041;-76
2021/12/21 09:01:14;;;;;;;17.77;12.98;;;;;;;;;;5043299;28;20037;-75
2021/12/21 09:03:40;;;;;;;16.02;11.10;;;;;;;;;;5051812;28;20413;-72
2021/12/21 09:06:06;;;;;;;17.55;11.38;;;;;;;;;;5070273;28;20056;-75
2021/12/21 09:08:33;;;;;;;19.00;12.35;;;;;;;;;;5061443;28;20444;-76
2021/12/21 09:11:03;;;;;;;20.50;12.30;;;;;;;;;;5063837;28;20044;-76
2021/12/21 09:13:30;;;;;;;16.65;12.02;;;;;;;;;;5074031;28;20041;-76
2021/12/21 09:15:56;;;;;;;20.05;12.70;;;;;;;;;;5053819;28;20053;-74
2021/12/21 09:18:23;;;;;;;18.80;12.15;;;;;;;;;;5054956;28;20516;-75
2021/12/21 09:20:49;;;;;;;18.90;12.98;;;;;;;;;;5053349;28;20084;-74
2021/12/21 09:23:15;;;;;;;20.67;14.15;;;;;;;;;;5053997;28;20033;-76
2021/12/21 09:25:41;;;;;;;19.92;13.52;;;;;;;;;;5036322;28;20406;-75
2021/12/21 09:28:07;;;;;;;20.75;13.15;;;;;;;;;;5053182;28;20056;-75
2021/12/21 09:30:33;;;;;;;17.98;13.52;;;;;;;;;;5052618;28;20365;-75
2021/12/21 09:33:00;;;;;;;19.85;13.35;;;;;;;;;;5059855;28;20056;-75
2021/12/21 09:35:26;;;;;;;20.33;14.00;;;;;;;;;;5056213;28;20064;-75
2021/12/21 09:37:52;;;;;;;20.83;13.77;;;;;;;;;;5051945;28;20076;-76
2021/12/21 09:40:20;;;;;;;19.38;13.40;;;;;;;;;;5072663;28;20047;-75
2021/12/21 09:42:47;;;;;;;20.13;12.98;;;;;;;;;;5037359;28;20068;-75
2021/12/21 09:45:16;;;;;;;22.50;13.50;;;;;;;;;;5042175;28;20056;-77
2021/12/21 09:47:43;;;;;;;19.77;13.43;;;;;;;;;;5043444;28;20044;-78
2021/12/21 09:50:13;;;;;;;18.98;13.93;;;;;;;;;;5042901;28;20041;-75
2021/12/21 09:52:39;;;;;;;21.13;13.90;;;;;;;;;;5053558;28;20052;-77
2021/12/21 09:55:08;;;;;;;23.15;14.63;;;;;;;;;;5048485;28;20032;-75
2021/12/21 09:57:35;;;;;;;19.48;13.73;;;;;;;;;;5052112;28;20036;-76
2021/12/21 10:00:02;;;;;;;18.80;13.18;;;;;;;;;;5043875;28;20049;-76
2021/12/21 10:02:29;;;;;;;24.38;14.50;;;;;;;;;;5043267;28;20040;-76
2021/12/21 10:05:00;;;;;;;22.27;14.65;;;;;;;;;;5067775;28;20048;-76
2021/12/21 10:07:27;;;;;;;21.98;13.30;;;;;;;;;;5072612;28;20067;-76
2021/12/21 10:10:13;;;;;;;23.35;14.45;;;;;;;;;;5049900;28;20340;-76
2021/12/21 10:12:41;;;;;;;24.03;13.57;;;;;;;;;;5053076;28;20041;-76
2021/12/21 10:15:07;;;;;;;21.08;13.50;;;;;;;;;;5043373;28;20032;-75
2021/12/21 10:17:35;;;;;;;20.90;13.68;;;;;;;;;;5052254;28;20044;-76
2021/12/21 10:20:06;;;;;;;19.38;13.68;;;;;;;;;;5050545;28;20048;-77
2021/12/21 10:22:32;;;;;;;25.33;14.13;;;;;;;;;;5035155;28;20106;-76
2021/12/21 10:24:58;;;;;;;19.20;14.10;;;;;;;;;;5052851;28;20041;-76
2021/12/21 10:27:25;;;;;;;21.40;14.02;;;;;;;;;;5049444;28;20049;-75
2021/12/21 10:30:01;;;;;;;26.38;14.32;;;;;;;;;;5055308;28;20040;-76
2021/12/21 10:32:32;;;;;;;22.58;14.63;;;;;;;;;;5056212;28;20037;-77
2021/12/21 10:35:05;;;;;;;22.17;13.85;;;;;;;;;;5055463;28;20025;-77
2021/12/21 10:37:32;;;;;;;22.83;13.68;;;;;;;;;;5055767;28;20356;-75
2021/12/21 10:40:28;;;;;;;22.10;13.60;;;;;;;;;;5053769;28;20048;-75
2021/12/21 10:42:58;;;;;;;21.00;12.32;;;;;;;;;;5072250;28;20064;-76
2021/12/21 10:45:26;;;;;;;21.85;12.85;;;;;;;;;;5043289;28;20037;-78
2021/12/21 10:47:52;;;;;;;18.90;12.20;;;;;;;;;;5053497;28;20044;-78
2021/12/21 10:50:19;;;;;;;17.50;11.48;;;;;;;;;;5054267;28;20044;-76
2021/12/21 10:52:49;;;;;;;15.63;11.80;;;;;;;;;;5042160;28;20069;-77
2021/12/21 10:55:53;;;;;;;18.27;11.82;;;;;;;;;;5021333;28;21609;-78
2021/12/21 10:58:29;;;;;;;27.63;12.43;;;;;;;;;;5048973;28;20036;-76
2021/12/21 11:00:58;;;;;;;18.02;10.88;;;;;;;;;;5049104;28;20045;-77
2021/12/21 11:03:37;;;;;;;16.88;10.90;;;;;;;;;;5066297;28;20040;-84
2021/12/21 11:06:14;;;;;;;17.33;10.82;;;;;;;;;;5030316;28;20041;-75
2021/12/21 11:08:41;;;;;;;18.92;10.90;;;;;;;;;;5035400;28;20487;-76
2021/12/21 11:11:11;;;;;;;19.67;10.63;;;;;;;;;;5038690;28;20091;-75
2021/12/21 11:13:38;;;;;;;15.80;10.65;;;;;;;;;;5037380;28;20045;-76
2021/12/21 11:16:07;;;;;;;15.80;10.10;;;;;;;;;;5048471;28;20111;-76
2021/12/21 11:18:37;;;;;;;13.80;10.13;;;;;;;;;;5052866;28;20494;-75
2021/12/21 11:21:06;;;;;;;16.92;10.02;;;;;;;;;;5041891;28;20045;-76
2021/12/21 11:23:34;;;;;;;14.05;10.05;;;;;;;;;;5048610;28;20167;-77
2021/12/21 11:26:02;;;;;;;14.65;9.73;;;;;;;;;;5039681;28;20049;-75
2021/12/21 11:28:35;;;;;;;17.48;9.43;;;;;;;;;;5053639;28;20091;-75
2021/12/21 11:31:01;;;;;;;15.73;9.85;;;;;;;;;;5049828;28;20053;-75
2021/12/21 11:33:34;;;;;;;17.27;9.70;;;;;;;;;;5039566;28;20045;-75
2021/12/21 11:38:45;;;;;;;10.80;8.65;;;;;;;;;;5041702;28;20400;-82
2021/12/21 11:41:11;;;;;;;13.20;8.73;;;;;;;;;;5053101;28;20037;-76
2021/12/21 11:43:41;;;;;;;14.35;8.77;;;;;;;;;;5055992;28;20041;-76
2021/12/21 11:46:13;;;;;;;15.10;9.15;;;;;;;;;;5055020;28;20079;-76
2021/12/21 11:48:49;;;;;;;15.77;9.00;;;;;;;;;;5050084;28;20329;-76
2021/12/21 11:51:15;;;;;;;;;;;;;;;;;;5024837;28;20345;-76
2021/12/21 11:53:41;;;;;;;14.97;8.97;;;;;;;;;;5053022;28;19964;-80
2021/12/21 11:56:08;;;;;;;12.10;9.48;;;;;;;;;;5043122;28;20471;-77
2021/12/21 11:58:42;;;;;;;14.05;9.80;;;;;;;;;;5040911;28;20092;-78
2021/12/21 12:01:19;;;;;;;13.82;8.82;;;;;;;;;;5046226;28;20064;-77
2021/12/21 12:04:08;;;;;;;13.75;8.70;;;;;;;;;;5053868;28;20129;-77
2021/12/21 12:06:48;;;;;;;16.73;10.70;;;;;;;;;;5052544;28;20475;-77
2021/12/21 12:09:28;;;;;;;23.60;12.00;;;;;;;;;;5053484;28;20142;-77
2021/12/21 12:12:07;;;;;;;19.27;11.88;;;;;;;;;;5050792;28;20070;-77
2021/12/21 12:14:35;;;;;;;18.10;10.73;;;;;;;;;;5049509;28;20034;-75
2021/12/21 12:17:05;;;;;;;13.05;9.13;;;;;;;;;;5043929;28;20092;-74
2021/12/21 12:19:33;;;;;;;12.70;9.15;;;;;;;;;;5040244;28;20098;-76
2021/12/21 12:22:00;;;;;;;15.85;9.15;;;;;;;;;;5068215;28;20049;-77
2021/12/21 12:24:28;;;;;;;13.30;8.40;;;;;;;;;;5040900;28;20047;-79
2021/12/21 12:26:59;;;;;;;14.38;8.60;;;;;;;;;;5054164;28;20128;-77
2021/12/21 12:29:25;;;;;;;13.57;7.95;;;;;;;;;;5052322;28;20047;-79
2021/12/21 12:31:54;;;;;;;17.42;9.48;;;;;;;;;;5053014;28;20049;-77
2021/12/21 12:34:24;;;;;;;12.48;8.45;;;;;;;;;;5051717;28;20495;-77
2021/12/21 12:36:51;;;;;;;13.85;8.60;;;;;;;;;;5053413;28;20128;-77
2021/12/21 12:39:36;;;;;;;13.98;8.40;;;;;;;;;;5053390;28;20048;-77
2021/12/21 12:42:10;;;;;;;16.05;9.82;;;;;;;;;;5053471;28;20075;-77
2021/12/21 12:44:40;;;;;;;12.93;8.00;;;;;;;;;;5052703;28;20060;-77
2021/12/21 12:47:09;;;;;;;12.13;8.70;;;;;;;;;;5049838;28;20439;-77
2021/12/21 12:49:36;;;;;;;14.45;8.85;;;;;;;;;;5066440;28;20045;-77
2021/12/21 12:52:04;;;;;;;13.05;8.57;;;;;;;;;;5066270;28;20400;-78
2021/12/21 12:54:30;;;;;;;15.52;8.95;;;;;;;;;;5069007;28;20049;-78
2021/12/21 12:56:56;;;;;;;12.45;8.18;;;;;;;;;;5051751;28;20052;-79
2021/12/21 12:59:22;;;;;;;13.13;7.85;;;;;;;;;;5053308;28;20114;-75
2021/12/21 13:01:49;;;;;;;12.70;7.30;;;;;;;;;;5033582;28;20048;-76
2021/12/21 13:04:16;;;;;;;11.43;7.10;;;;;;;;;;5069206;28;20089;-76
2021/12/21 13:06:43;;;;;;;10.50;6.70;;;;;;;;;;5037354;28;20055;-75
2021/12/21 13:09:12;;;;;;;11.35;6.85;;;;;;;;;;5051495;28;20068;-75
2021/12/21 13:11:40;;;;;;;8.63;6.50;;;;;;;;;;5060622;28;20048;-76
2021/12/21 13:14:06;;;;;;;10.57;6.72;;;;;;;;;;5052441;28;20071;-75
2021/12/21 13:16:34;;;;;;;10.25;7.10;;;;;;;;;;5051609;28;20041;-76
2021/12/21 13:19:13;;;;;;;11.18;7.53;;;;;;;;;;5050212;28;20135;-76
2021/12/21 13:22:05;;;;;;;12.55;6.85;;;;;;;;;;5055158;28;20064;-77
2021/12/21 13:24:35;;;;;;;9.23;5.85;;;;;;;;;;5051938;28;20120;-78
2021/12/21 13:27:03;;;;;;;11.18;6.90;;;;;;;;;;5061021;28;20056;-76
2021/12/21 13:29:30;;;;;;;11.43;5.40;;;;;;;;;;5052753;28;20048;-77
2021/12/21 13:31:57;;;;;;;9.77;5.82;;;;;;;;;;5064571;28;20048;-76
2021/12/21 13:34:25;;;;;;;10.15;6.25;;;;;;;;;;5072881;28;20044;-76
2021/12/21 13:36:54;;;;;;;14.43;6.45;;;;;;;;;;5044975;28;20049;-76
2021/12/21 13:39:20;;;;;;;9.52;5.57;;;;;;;;;;5033828;28;20060;-78
2021/12/21 13:41:51;;;;;;;11.20;6.40;;;;;;;;;;5054028;28;20037;-75
2021/12/21 13:44:26;;;;;;;12.43;6.03;;;;;;;;;;5053846;28;20049;-77
2021/12/21 13:46:53;;;;;;;12.55;6.40;;;;;;;;;;5035586;28;20041;-76
2021/12/21 13:49:20;;;;;;;10.40;5.70;;;;;;;;;;5054254;28;20041;-76
2021/12/21 13:51:54;;;;;;;9.40;5.78;;;;;;;;;;5036216;28;20045;-76
2021/12/21 13:54:20;;;;;;;10.25;5.70;;;;;;;;;;5036326;28;20352;-76
2021/12/21 13:56:47;;;;;;;13.23;5.60;;;;;;;;;;5052731;28;20379;-76
2021/12/21 13:59:14;;;;;;;10.98;5.57;;;;;;;;;;5052730;28;20044;-76
2021/12/21 14:01:42;;;;;;;10.35;5.00;;;;;;;;;;5028750;28;20049;-75
2021/12/21 14:04:13;;;;;;;11.85;5.70;;;;;;;;;;5037723;28;20045;-77
2021/12/21 14:06:42;;;;;;;8.90;5.35;;;;;;;;;;5055967;28;20057;-77
2021/12/21 14:09:10;;;;;;;7.80;5.55;;;;;;;;;;5056642;28;20063;-77
2021/12/21 14:11:37;;;;;;;8.48;4.80;;;;;;;;;;5056004;28;20449;-77
2021/12/21 14:14:14;;;;;;;9.95;5.22;;;;;;;;;;5056439;28;20115;-76
2021/12/21 14:16:51;;;;;;;10.98;4.97;;;;;;;;;;5060348;28;20075;-78
2021/12/21 14:19:24;;;;;;;8.27;5.13;;;;;;;;;;5058318;28;20044;-77
2021/12/21 14:21:54;;;;;;;10.90;5.38;;;;;;;;;;5049760;28;20136;-79
2021/12/21 14:24:21;;;;;;;11.60;5.63;;;;;;;;;;5036376;28;20045;-78
2021/12/21 14:26:52;;;;;;;7.57;5.20;;;;;;;;;;5054388;28;20046;-78
2021/12/21 14:29:22;;;;;;;7.82;4.72;;;;;;;;;;5069204;28;20063;-77
2021/12/21 14:34:29;;;;;;;9.27;5.68;;;;;;;;;;5066921;28;20048;-78
2021/12/21 14:36:56;;;;;;;12.90;5.80;;;;;;;;;;5049069;28;20037;-77
2021/12/21 14:39:23;;;;;;;9.13;5.50;;;;;;;;;;5041681;28;20037;-76
2021/12/21 14:41:54;;;;;;;10.20;5.57;;;;;;;;;;5049156;28;20061;-77
2021/12/21 14:44:24;;;;;;;8.82;5.30;;;;;;;;;;5064615;28;20045;-78
2021/12/21 14:46:58;;;;;;;9.75;5.30;;;;;;;;;;5056043;28;20060;-76
2021/12/21 14:49:24;;;;;;;7.20;5.10;;;;;;;;;;5055113;28;20344;-76
2021/12/21 14:51:51;;;;;;;7.65;5.15;;;;;;;;;;5072073;28;20425;-78
2021/12/21 14:54:30;;;;;;;11.50;5.20;;;;;;;;;;5072395;28;20044;-79
2021/12/21 14:57:06;;;;;;;10.02;5.55;;;;;;;;;;5072313;28;20049;-78
2021/12/21 14:59:37;;;;;;;9.60;5.43;;;;;;;;;;5054549;28;20417;-78
2021/12/21 15:02:11;;;;;;;11.38;5.53;;;;;;;;;;5055878;28;20099;-77
2021/12/21 15:04:41;;;;;;;11.82;5.28;;;;;;;;;;5066023;28;20068;-78
2021/12/21 15:07:07;;;;;;;10.73;4.70;;;;;;;;;;5055834;28;20183;-76
2021/12/21 15:09:34;;;;;;;7.72;4.82;;;;;;;;;;5055857;28;20045;-77
2021/12/21 15:12:00;;;;;;;10.65;5.47;;;;;;;;;;5038283;28;20049;-77
2021/12/21 15:14:26;;;;;;;10.95;5.50;;;;;;;;;;5044778;28;20449;-76
2021/12/21 15:16:55;;;;;;;16.40;8.20;;;;;;;;;;5055424;28;20086;-78
2021/12/21 15:19:21;;;;;;;11.32;6.30;;;;;;;;;;5063955;28;20041;-77
2021/12/21 15:21:48;;;;;;;10.40;6.15;;;;;;;;;;5056406;28;20443;-78
2021/12/21 15:24:14;;;;;;;7.32;5.13;;;;;;;;;;5072483;28;20436;-78
2021/12/21 15:26:41;;;;;;;9.07;5.03;;;;;;;;;;5068832;28;20375;-77
2021/12/21 15:29:07;;;;;;;9.50;5.30;;;;;;;;;;5059847;28;20089;-78
2021/12/21 15:31:33;;;;;;;11.10;6.10;;;;;;;;;;5073300;28;20048;-77
2021/12/21 15:34:00;;;;;;;12.18;5.90;;;;;;;;;;5069649;28;20051;-79
2021/12/21 15:36:26;;;;;;;12.35;5.82;;;;;;;;;;5038257;28;20098;-77
2021/12/21 15:38:54;;;;;;;8.63;5.40;;;;;;;;;;5054618;28;20047;-76
2021/12/21 15:41:23;;;;;;;10.82;5.57;;;;;;;;;;5054665;28;20059;-77
2021/12/21 15:43:53;;;;;;;12.30;6.13;;;;;;;;;;5053898;28;20120;-77
2021/12/21 15:46:20;;;;;;;13.52;6.53;;;;;;;;;;5054366;28;20033;-77
2021/12/21 15:48:46;;;;;;;10.35;5.93;;;;;;;;;;5059877;28;20052;-77